Time;durP1;ratioP1;P1;durP2;ratioP2;P2;SDS_P1;SDS_P2;PMS_P1;PMS_P2;Temp;Humidity;BMP_temperature;BMP_pressure;BME280_temperature;BME280_humidity;BME280_pressure;Samples;Min_cycle;Max_cycle;Signal;HPM_P1;HPM_P2
2021/01/24 00:00:53;;;;;;;33.63;16.75;;;;;;;;;;1818867;79;21177;-83
2021/01/24 00:03:21;;;;;;;36.98;17.23;;;;;;;;;;1818828;79;21150;-82
2021/01/24 00:05:47;;;;;;;31.17;17.70;;;;;;;;;;1818892;79;21145;-83
2021/01/24 00:08:13;;;;;;;29.87;16.57;;;;;;;;;;1818833;79;21170;-81
2021/01/24 00:10:40;;;;;;;35.20;18.32;;;;;;;;;;1818870;79;21158;-82
2021/01/24 00:13:06;;;;;;;35.08;18.02;;;;;;;;;;1818892;79;21189;-82
2021/01/24 00:15:32;;;;;;;36.77;18.50;;;;;;;;;;1819221;79;21168;-83
2021/01/24 00:17:58;;;;;;;37.03;18.32;;;;;;;;;;1818892;79;21561;-83
2021/01/24 00:20:25;;;;;;;36.88;18.27;;;;;;;;;;1818774;79;21134;-83
2021/01/24 00:22:51;;;;;;;36.73;18.10;;;;;;;;;;1818865;79;21118;-83
2021/01/24 00:25:17;;;;;;;39.95;19.50;;;;;;;;;;1818879;79;21177;-83
2021/01/24 00:27:44;;;;;;;29.98;17.42;;;;;;;;;;1819105;79;21601;-82
2021/01/24 00:30:11;;;;;;;31.70;17.42;;;;;;;;;;1819089;79;21166;-82
2021/01/24 00:32:37;;;;;;;35.03;17.40;;;;;;;;;;1818847;79;21586;-83
2021/01/24 00:35:04;;;;;;;35.73;17.37;;;;;;;;;;1818989;79;21553;-82
2021/01/24 00:37:30;;;;;;;40.78;19.77;;;;;;;;;;1819519;78;21153;-83
2021/01/24 00:39:56;;;;;;;39.33;20.17;;;;;;;;;;1827841;78;21145;-82
2021/01/24 00:42:22;;;;;;;38.38;18.15;;;;;;;;;;1828094;78;21295;-82
2021/01/24 00:44:48;;;;;;;35.50;18.17;;;;;;;;;;1827897;78;21565;-82
2021/01/24 00:47:14;;;;;;;36.45;18.15;;;;;;;;;;1827831;78;21159;-83
2021/01/24 00:49:41;;;;;;;39.78;16.65;;;;;;;;;;1827687;78;21133;-83
2021/01/24 00:52:07;;;;;;;31.87;16.15;;;;;;;;;;1827817;78;21113;-83
2021/01/24 00:54:33;;;;;;;37.20;17.87;;;;;;;;;;1828158;78;21279;-81
2021/01/24 00:56:59;;;;;;;35.03;17.80;;;;;;;;;;1827907;78;21180;-82
2021/01/24 00:59:25;;;;;;;26.85;14.75;;;;;;;;;;1827866;78;21138;-83
2021/01/24 01:01:51;;;;;;;30.20;15.08;;;;;;;;;;1827734;78;21604;-82
2021/01/24 01:04:17;;;;;;;33.10;18.02;;;;;;;;;;1827997;78;21173;-83
2021/01/24 01:06:44;;;;;;;30.97;16.73;;;;;;;;;;1827821;78;21133;-83
2021/01/24 01:09:10;;;;;;;26.55;14.90;;;;;;;;;;1827689;78;21639;-82
2021/01/24 01:11:36;;;;;;;28.55;15.95;;;;;;;;;;1827831;78;21161;-83
2021/01/24 01:14:03;;;;;;;30.45;15.93;;;;;;;;;;1828008;78;21165;-83
2021/01/24 01:16:29;;;;;;;31.12;17.25;;;;;;;;;;1827763;78;21144;-82
2021/01/24 01:18:55;;;;;;;31.45;16.00;;;;;;;;;;1827853;78;21144;-83
2021/01/24 01:21:21;;;;;;;33.30;15.93;;;;;;;;;;1827893;78;21141;-83
2021/01/24 01:23:47;;;;;;;30.15;16.87;;;;;;;;;;1827815;78;21149;-82
2021/01/24 01:26:14;;;;;;;34.50;17.98;;;;;;;;;;1827714;78;21164;-82
2021/01/24 01:28:40;;;;;;;29.42;16.35;;;;;;;;;;1827838;78;21180;-82
2021/01/24 01:31:06;;;;;;;33.33;17.85;;;;;;;;;;1827747;78;21133;-83
2021/01/24 01:33:33;;;;;;;29.60;14.73;;;;;;;;;;1827910;78;21604;-82
2021/01/24 01:35:59;;;;;;;30.32;16.73;;;;;;;;;;1828018;78;21278;-82
2021/01/24 01:38:25;;;;;;;31.87;16.37;;;;;;;;;;1824418;78;21185;-82
2021/01/24 01:40:52;;;;;;;27.25;15.15;;;;;;;;;;1818779;79;21193;-82
2021/01/24 01:43:18;;;;;;;26.90;15.65;;;;;;;;;;1819006;79;21157;-82
2021/01/24 01:45:44;;;;;;;28.83;14.33;;;;;;;;;;1818781;79;21173;-83
2021/01/24 01:48:13;;;;;;;25.48;15.00;;;;;;;;;;1818906;79;21608;-83
2021/01/24 01:50:39;;;;;;;28.83;14.35;;;;;;;;;;1818827;79;21133;-82
2021/01/24 01:53:05;;;;;;;27.82;14.63;;;;;;;;;;1818997;79;21146;-83
2021/01/24 01:55:32;;;;;;;33.53;16.30;;;;;;;;;;1818883;79;21208;-82
2021/01/24 01:57:58;;;;;;;26.87;14.83;;;;;;;;;;1818906;79;21157;-83
2021/01/24 02:00:24;;;;;;;25.45;14.28;;;;;;;;;;1818708;79;21189;-83
2021/01/24 02:02:58;;;;;;;26.57;14.93;;;;;;;;;;1818885;79;21157;-84
2021/01/24 02:05:39;;;;;;;28.27;16.67;;;;;;;;;;1818761;79;21139;-81
2021/01/24 02:08:06;;;;;;;26.77;15.80;;;;;;;;;;1771092;79;21169;-82
2021/01/24 02:10:34;;;;;;;26.35;14.83;;;;;;;;;;1818945;79;21641;-82
2021/01/24 02:13:02;;;;;;;29.40;16.50;;;;;;;;;;1818920;79;21145;-82
2021/01/24 02:15:30;;;;;;;25.92;14.47;;;;;;;;;;1818838;79;21617;-82
2021/01/24 02:17:58;;;;;;;30.08;16.17;;;;;;;;;;1818744;79;21146;-83
2021/01/24 02:20:32;;;;;;;31.15;14.38;;;;;;;;;;1819055;79;21165;-82
2021/01/24 02:22:58;;;;;;;24.00;14.28;;;;;;;;;;1818651;79;21137;-83
2021/01/24 02:25:29;;;;;;;29.80;15.15;;;;;;;;;;1818820;79;21173;-82
2021/01/24 02:28:14;;;;;;;29.55;15.30;;;;;;;;;;1819118;79;21145;-82
2021/01/24 02:30:40;;;;;;;27.82;14.98;;;;;;;;;;1819226;79;21172;-83
2021/01/24 02:33:08;;;;;;;25.25;15.72;;;;;;;;;;1818862;79;21149;-83
2021/01/24 02:35:36;;;;;;;30.70;16.40;;;;;;;;;;1818290;79;21704;-83
2021/01/24 02:38:02;;;;;;;25.57;14.50;;;;;;;;;;1816430;79;21561;-82
2021/01/24 02:40:29;;;;;;;26.37;15.53;;;;;;;;;;1795471;80;21103;-82
2021/01/24 02:42:55;;;;;;;29.77;15.30;;;;;;;;;;1795261;80;21161;-83
2021/01/24 02:45:21;;;;;;;25.88;15.55;;;;;;;;;;1795272;80;21586;-82
2021/01/24 02:47:48;;;;;;;26.57;14.33;;;;;;;;;;1795209;80;21146;-83
2021/01/24 02:50:14;;;;;;;27.75;16.07;;;;;;;;;;1795638;80;21185;-82
2021/01/24 02:52:40;;;;;;;28.23;15.90;;;;;;;;;;1795155;80;21170;-82
2021/01/24 02:55:12;;;;;;;33.45;18.30;;;;;;;;;;1795377;80;21141;-82
2021/01/24 02:57:35;;;;;;;25.65;15.23;;;;;;;;;;1792864;80;21720;-83
2021/01/24 03:00:02;;;;;;;29.57;17.12;;;;;;;;;;1795233;80;21143;-82
2021/01/24 03:02:29;;;;;;;25.12;15.25;;;;;;;;;;1795404;80;21153;-82
2021/01/24 03:04:55;;;;;;;31.75;15.28;;;;;;;;;;1795246;80;21618;-83
2021/01/24 03:07:21;;;;;;;29.07;15.23;;;;;;;;;;1795266;80;21150;-83
2021/01/24 03:09:47;;;;;;;29.60;15.70;;;;;;;;;;1795082;80;21170;-82
2021/01/24 03:12:13;;;;;;;28.70;16.40;;;;;;;;;;1795216;80;21190;-83
2021/01/24 03:14:39;;;;;;;30.02;17.00;;;;;;;;;;1795082;80;21142;-82
2021/01/24 03:17:06;;;;;;;32.15;17.02;;;;;;;;;;1795174;80;21179;-83
2021/01/24 03:19:32;;;;;;;29.95;16.42;;;;;;;;;;1795098;80;21222;-82
2021/01/24 03:21:58;;;;;;;27.13;15.32;;;;;;;;;;1795177;80;21146;-82
2021/01/24 03:24:24;;;;;;;38.35;18.62;;;;;;;;;;1795446;80;21174;-82
2021/01/24 03:26:50;;;;;;;27.93;15.70;;;;;;;;;;1795058;80;21142;-82
2021/01/24 03:29:16;;;;;;;30.88;17.27;;;;;;;;;;1795467;80;21228;-82
2021/01/24 03:31:43;;;;;;;40.03;16.90;;;;;;;;;;1795550;80;21581;-82
2021/01/24 03:34:11;;;;;;;27.90;15.95;;;;;;;;;;1795454;80;21162;-82
2021/01/24 03:36:37;;;;;;;26.15;14.78;;;;;;;;;;1795060;80;21162;-82
2021/01/24 03:39:03;;;;;;;26.07;16.90;;;;;;;;;;1795138;78;21126;-82
2021/01/24 03:41:29;;;;;;;33.40;17.60;;;;;;;;;;1795209;80;21154;-82
2021/01/24 03:43:55;;;;;;;33.63;17.85;;;;;;;;;;1795722;80;21162;-83
2021/01/24 03:46:21;;;;;;;28.67;17.70;;;;;;;;;;1795163;80;21568;-82
2021/01/24 03:48:48;;;;;;;31.15;16.97;;;;;;;;;;1795175;80;21169;-83
2021/01/24 03:51:14;;;;;;;37.73;20.25;;;;;;;;;;1795111;80;21123;-83
2021/01/24 03:53:40;;;;;;;37.33;21.42;;;;;;;;;;1795061;80;21151;-82
2021/01/24 03:56:06;;;;;;;34.20;19.60;;;;;;;;;;1795180;80;21147;-83
2021/01/24 03:58:32;;;;;;;36.45;20.92;;;;;;;;;;1795275;80;21170;-82
2021/01/24 04:00:59;;;;;;;39.80;21.97;;;;;;;;;;1794902;80;21208;-83
2021/01/24 04:03:27;;;;;;;35.50;21.23;;;;;;;;;;1795201;80;21167;-81
2021/01/24 04:05:53;;;;;;;43.42;22.55;;;;;;;;;;1795035;80;21118;-82
2021/01/24 04:08:19;;;;;;;39.13;21.27;;;;;;;;;;1794952;80;21154;-82
2021/01/24 04:10:45;;;;;;;43.17;22.07;;;;;;;;;;1794952;80;21143;-82
2021/01/24 04:13:11;;;;;;;38.55;21.00;;;;;;;;;;1795058;80;21567;-81
2021/01/24 04:15:38;;;;;;;39.67;21.62;;;;;;;;;;1794520;80;21199;-82
2021/01/24 04:18:04;;;;;;;41.80;22.17;;;;;;;;;;1795394;80;21550;-82
2021/01/24 04:20:30;;;;;;;42.43;22.25;;;;;;;;;;1795235;80;21667;-82
2021/01/24 04:22:56;;;;;;;37.23;21.12;;;;;;;;;;1795253;80;21162;-83
2021/01/24 04:25:24;;;;;;;36.75;19.70;;;;;;;;;;1795046;80;21276;-83
2021/01/24 04:27:50;;;;;;;35.75;20.68;;;;;;;;;;1795023;80;21127;-83
2021/01/24 04:30:16;;;;;;;38.80;19.40;;;;;;;;;;1795237;80;21154;-82
2021/01/24 04:32:43;;;;;;;34.33;18.80;;;;;;;;;;1794990;80;21175;-83
2021/01/24 04:35:09;;;;;;;36.15;20.10;;;;;;;;;;1795490;80;21154;-83
2021/01/24 04:37:35;;;;;;;30.57;17.52;;;;;;;;;;1795144;80;21189;-83
2021/01/24 04:40:02;;;;;;;26.87;16.30;;;;;;;;;;1811726;79;21146;-83
2021/01/24 04:42:29;;;;;;;28.35;15.88;;;;;;;;;;1818776;79;21595;-83
2021/01/24 04:44:55;;;;;;;27.95;16.12;;;;;;;;;;1818917;79;21169;-82
2021/01/24 04:47:21;;;;;;;29.10;16.55;;;;;;;;;;1818868;79;21581;-83
2021/01/24 04:49:48;;;;;;;28.10;15.23;;;;;;;;;;1818928;79;21608;-83
2021/01/24 04:52:14;;;;;;;25.90;14.23;;;;;;;;;;1818864;79;21923;-83
2021/01/24 04:54:41;;;;;;;25.65;13.40;;;;;;;;;;1818983;79;21157;-82
2021/01/24 04:57:07;;;;;;;24.90;13.55;;;;;;;;;;1819031;79;21173;-83
2021/01/24 04:59:33;;;;;;;20.95;12.63;;;;;;;;;;1818973;79;21157;-83
2021/01/24 05:01:59;;;;;;;23.75;13.40;;;;;;;;;;1819002;79;21593;-82
2021/01/24 05:04:25;;;;;;;25.85;15.90;;;;;;;;;;1818780;79;21190;-82
2021/01/24 05:06:51;;;;;;;26.37;14.95;;;;;;;;;;1818862;79;21217;-83
2021/01/24 05:09:19;;;;;;;24.32;14.13;;;;;;;;;;1818890;79;21121;-82
2021/01/24 05:11:51;;;;;;;28.47;14.80;;;;;;;;;;1818866;79;21561;-83
2021/01/24 05:14:19;;;;;;;27.70;15.08;;;;;;;;;;1818777;79;21146;-82
2021/01/24 05:16:49;;;;;;;27.62;15.63;;;;;;;;;;1817808;79;21149;-83
2021/01/24 05:19:15;;;;;;;26.57;14.10;;;;;;;;;;1818770;79;21169;-83
2021/01/24 05:21:41;;;;;;;29.52;16.07;;;;;;;;;;1819086;79;21158;-82
2021/01/24 05:24:11;;;;;;;30.72;16.93;;;;;;;;;;1818870;79;21150;-83
2021/01/24 05:26:39;;;;;;;27.48;15.48;;;;;;;;;;1819243;79;21118;-82
2021/01/24 05:29:07;;;;;;;27.80;16.12;;;;;;;;;;1815443;79;21173;-83
2021/01/24 05:31:33;;;;;;;26.95;16.32;;;;;;;;;;1818209;79;21224;-83
2021/01/24 05:33:59;;;;;;;25.15;15.20;;;;;;;;;;1818761;79;21161;-83
2021/01/24 05:36:25;;;;;;;26.90;14.98;;;;;;;;;;1819011;79;21161;-82
2021/01/24 05:38:52;;;;;;;27.98;16.02;;;;;;;;;;1818956;79;21153;-83
2021/01/24 05:41:18;;;;;;;27.82;15.72;;;;;;;;;;1818698;79;21125;-83
2021/01/24 05:43:44;;;;;;;26.82;16.23;;;;;;;;;;1818848;79;21176;-83
2021/01/24 05:46:11;;;;;;;28.35;16.48;;;;;;;;;;1818748;79;21138;-83
2021/01/24 05:48:39;;;;;;;30.43;17.32;;;;;;;;;;1818861;79;21118;-83
2021/01/24 05:51:05;;;;;;;28.20;15.25;;;;;;;;;;1817561;79;21137;-83
2021/01/24 05:53:38;;;;;;;29.35;15.30;;;;;;;;;;1819183;79;21248;-82
2021/01/24 05:56:10;;;;;;;25.27;15.83;;;;;;;;;;1818831;79;21189;-83
2021/01/24 05:58:38;;;;;;;26.97;16.00;;;;;;;;;;1818718;79;21223;-84
2021/01/24 06:01:05;;;;;;;29.87;15.55;;;;;;;;;;1818829;79;21681;-82
2021/01/24 06:03:31;;;;;;;26.60;14.73;;;;;;;;;;1818814;79;21129;-83
2021/01/24 06:05:57;;;;;;;27.55;15.48;;;;;;;;;;1787279;79;21600;-83
2021/01/24 06:08:23;;;;;;;28.67;16.05;;;;;;;;;;1819097;79;21138;-83
2021/01/24 06:10:49;;;;;;;28.87;15.98;;;;;;;;;;1818912;79;21122;-82
2021/01/24 06:13:17;;;;;;;28.38;16.23;;;;;;;;;;1818919;79;21157;-82
2021/01/24 06:15:43;;;;;;;32.60;17.42;;;;;;;;;;1819092;79;21125;-82
2021/01/24 06:18:11;;;;;;;37.53;17.32;;;;;;;;;;1818932;79;21572;-83
2021/01/24 06:20:48;;;;;;;28.07;15.65;;;;;;;;;;1818912;79;21577;-83
2021/01/24 06:23:16;;;;;;;27.45;14.95;;;;;;;;;;1818992;79;21645;-83
2021/01/24 06:25:44;;;;;;;36.33;16.93;;;;;;;;;;1818852;79;21581;-83
2021/01/24 06:28:11;;;;;;;28.42;16.27;;;;;;;;;;1818918;79;21169;-83
2021/01/24 06:30:37;;;;;;;27.73;17.73;;;;;;;;;;1819016;79;21156;-83
2021/01/24 06:33:11;;;;;;;31.35;17.75;;;;;;;;;;1818962;79;21150;-83
2021/01/24 06:35:39;;;;;;;27.48;16.48;;;;;;;;;;1817967;79;21590;-82
2021/01/24 06:38:05;;;;;;;28.95;17.48;;;;;;;;;;1818281;79;21181;-82
2021/01/24 06:40:31;;;;;;;31.75;18.30;;;;;;;;;;1825503;78;21286;-83
2021/01/24 06:42:58;;;;;;;38.58;19.32;;;;;;;;;;1827872;78;21164;-82
2021/01/24 06:45:26;;;;;;;36.33;21.20;;;;;;;;;;1827801;78;21148;-83
2021/01/24 06:47:53;;;;;;;38.25;19.52;;;;;;;;;;1827952;78;21576;-82
2021/01/24 06:50:36;;;;;;;33.05;18.85;;;;;;;;;;1828167;78;21125;-82
2021/01/24 06:53:03;;;;;;;45.12;23.20;;;;;;;;;;1828008;78;21723;-82
2021/01/24 06:55:29;;;;;;;36.88;19.55;;;;;;;;;;1828002;78;21121;-83
2021/01/24 06:57:56;;;;;;;35.90;20.80;;;;;;;;;;1827828;78;21181;-82
2021/01/24 07:00:22;;;;;;;32.08;18.92;;;;;;;;;;1827853;78;21668;-82
2021/01/24 07:02:51;;;;;;;34.43;18.98;;;;;;;;;;1828057;78;21161;-82
2021/01/24 07:05:18;;;;;;;30.82;18.52;;;;;;;;;;1828115;78;21157;-82
2021/01/24 07:07:46;;;;;;;33.85;19.10;;;;;;;;;;1828157;78;21712;-83
2021/01/24 07:10:30;;;;;;;32.98;18.95;;;;;;;;;;1826998;78;21576;-82
2021/01/24 07:12:56;;;;;;;24.92;15.55;;;;;;;;;;1828173;78;21130;-83
2021/01/24 07:15:23;;;;;;;36.17;19.17;;;;;;;;;;1827888;78;21149;-82
2021/01/24 07:17:56;;;;;;;34.73;19.55;;;;;;;;;;1828085;78;21613;-84
2021/01/24 07:20:23;;;;;;;39.00;21.02;;;;;;;;;;1826836;78;21747;-83
2021/01/24 07:22:49;;;;;;;34.80;20.65;;;;;;;;;;1828114;78;21197;-83
2021/01/24 07:25:17;;;;;;;39.88;21.77;;;;;;;;;;1827940;78;21137;-83
2021/01/24 07:27:43;;;;;;;36.05;21.10;;;;;;;;;;1827729;78;21160;-84
2021/01/24 07:30:09;;;;;;;42.03;23.52;;;;;;;;;;1827894;78;21133;-83
2021/01/24 07:32:36;;;;;;;44.88;24.12;;;;;;;;;;1827904;78;21210;-83
2021/01/24 07:35:02;;;;;;;42.78;25.20;;;;;;;;;;1800803;78;21230;-84
2021/01/24 07:37:29;;;;;;;46.77;24.30;;;;;;;;;;1800696;78;21580;-83
2021/01/24 07:39:55;;;;;;;49.05;24.37;;;;;;;;;;1800617;78;21172;-83
2021/01/24 07:42:21;;;;;;;42.30;24.43;;;;;;;;;;1828732;78;21184;-83
2021/01/24 07:44:47;;;;;;;40.88;23.67;;;;;;;;;;1828469;78;21541;-82
2021/01/24 07:47:15;;;;;;;36.93;21.10;;;;;;;;;;1828393;78;21271;-83
2021/01/24 07:49:41;;;;;;;42.33;21.87;;;;;;;;;;1828766;78;21185;-83
2021/01/24 07:52:08;;;;;;;42.58;23.92;;;;;;;;;;1828867;78;21132;-83
2021/01/24 07:54:34;;;;;;;44.73;24.55;;;;;;;;;;1828503;78;21149;-83
2021/01/24 07:57:01;;;;;;;40.35;23.35;;;;;;;;;;1828577;78;21577;-83
2021/01/24 07:59:27;;;;;;;43.05;23.70;;;;;;;;;;1828788;78;21160;-83
2021/01/24 08:01:53;;;;;;;41.42;24.37;;;;;;;;;;1828488;78;21613;-83
2021/01/24 08:04:21;;;;;;;46.33;25.40;;;;;;;;;;1828385;78;21161;-83
2021/01/24 08:06:47;;;;;;;50.38;25.80;;;;;;;;;;1828642;78;21144;-83
2021/01/24 08:09:13;;;;;;;53.13;25.00;;;;;;;;;;1800725;78;21169;-84
2021/01/24 08:11:39;;;;;;;41.25;24.00;;;;;;;;;;1800940;78;21148;-83
2021/01/24 08:14:06;;;;;;;43.08;25.80;;;;;;;;;;1828418;78;21125;-82
2021/01/24 08:16:34;;;;;;;44.58;24.75;;;;;;;;;;1828425;78;21161;-82
2021/01/24 08:19:00;;;;;;;42.48;24.43;;;;;;;;;;1828379;78;21283;-83
2021/01/24 08:21:26;;;;;;;42.93;24.87;;;;;;;;;;1828541;78;21601;-83
2021/01/24 08:23:52;;;;;;;47.55;26.02;;;;;;;;;;1828313;78;21137;-83
2021/01/24 08:26:19;;;;;;;40.98;25.43;;;;;;;;;;1828307;78;21146;-83
2021/01/24 08:28:46;;;;;;;50.17;26.37;;;;;;;;;;1828473;78;21314;-83
2021/01/24 08:31:19;;;;;;;50.65;26.52;;;;;;;;;;1828380;78;21161;-84
2021/01/24 08:33:45;;;;;;;46.48;26.25;;;;;;;;;;1828282;78;21169;-83
2021/01/24 08:36:19;;;;;;;43.08;24.77;;;;;;;;;;1828478;78;21144;-83
2021/01/24 08:38:46;;;;;;;42.45;25.10;;;;;;;;;;1828406;78;21177;-83
2021/01/24 08:41:12;;;;;;;47.90;27.22;;;;;;;;;;1802770;78;21560;-84
2021/01/24 08:43:39;;;;;;;44.67;26.68;;;;;;;;;;1795067;80;21158;-83
2021/01/24 08:46:18;;;;;;;45.85;25.55;;;;;;;;;;1795402;80;21170;-83
2021/01/24 08:48:44;;;;;;;47.40;25.80;;;;;;;;;;1795199;80;21827;-84
2021/01/24 08:51:10;;;;;;;52.67;26.27;;;;;;;;;;1795075;80;21284;-83
2021/01/24 08:53:36;;;;;;;51.98;26.52;;;;;;;;;;1795178;80;21154;-84
2021/01/24 08:56:02;;;;;;;42.58;26.23;;;;;;;;;;1795206;80;21173;-83
2021/01/24 08:58:29;;;;;;;41.42;25.12;;;;;;;;;;1795086;80;21292;-82
2021/01/24 09:01:02;;;;;;;45.23;26.45;;;;;;;;;;1795185;80;21180;-84
2021/01/24 09:03:28;;;;;;;46.08;25.30;;;;;;;;;;1794206;80;21606;-84
2021/01/24 09:05:55;;;;;;;44.85;25.90;;;;;;;;;;1795381;80;21145;-84
2021/01/24 09:08:27;;;;;;;41.15;23.32;;;;;;;;;;1766413;80;21175;-85
2021/01/24 09:10:55;;;;;;;54.83;25.00;;;;;;;;;;1795170;80;21186;-84
2021/01/24 09:13:21;;;;;;;45.85;25.50;;;;;;;;;;1795044;80;21166;-85
2021/01/24 09:15:47;;;;;;;48.45;24.47;;;;;;;;;;1795082;80;21210;-84
2021/01/24 09:18:13;;;;;;;41.25;25.27;;;;;;;;;;1795207;80;21170;-82
2021/01/24 09:20:40;;;;;;;51.00;28.20;;;;;;;;;;1795270;80;21153;-85
2021/01/24 09:23:06;;;;;;;52.00;27.45;;;;;;;;;;1795571;80;21178;-84
2021/01/24 09:25:32;;;;;;;41.53;28.05;;;;;;;;;;1795121;80;21589;-83
2021/01/24 09:27:58;;;;;;;47.27;27.98;;;;;;;;;;1795421;80;21115;-83
2021/01/24 09:30:24;;;;;;;42.85;26.07;;;;;;;;;;1795361;80;21143;-84
2021/01/24 09:32:51;;;;;;;42.43;24.80;;;;;;;;;;1795028;80;21578;-83
2021/01/24 09:35:17;;;;;;;42.70;24.47;;;;;;;;;;1795474;80;21191;-84
2021/01/24 09:37:46;;;;;;;37.25;23.55;;;;;;;;;;1795099;80;21162;-84
2021/01/24 09:40:12;;;;;;;37.03;22.98;;;;;;;;;;1800981;78;21145;-84
2021/01/24 09:42:40;;;;;;;36.20;21.50;;;;;;;;;;1818761;79;21609;-84
2021/01/24 09:45:08;;;;;;;31.45;21.10;;;;;;;;;;1819128;79;21142;-83
2021/01/24 09:47:34;;;;;;;33.38;22.05;;;;;;;;;;1818036;79;21554;-83
2021/01/24 09:50:00;;;;;;;34.63;20.60;;;;;;;;;;1819002;79;21137;-83
2021/01/24 09:52:30;;;;;;;33.75;19.95;;;;;;;;;;1819503;79;21663;-83
2021/01/24 09:54:54;;;;;;;34.50;21.07;;;;;;;;;;1787226;79;21149;-84
2021/01/24 09:57:23;;;;;;;30.68;20.00;;;;;;;;;;1819053;79;21114;-84
2021/01/24 09:59:52;;;;;;;31.33;19.10;;;;;;;;;;1819354;79;21283;-84
2021/01/24 10:02:18;;;;;;;31.87;19.82;;;;;;;;;;1818966;79;21134;-84
2021/01/24 10:04:44;;;;;;;26.50;17.73;;;;;;;;;;1819220;79;21645;-83
2021/01/24 10:07:10;;;;;;;31.40;17.85;;;;;;;;;;1818994;79;21166;-84
2021/01/24 10:09:38;;;;;;;27.02;17.62;;;;;;;;;;1819126;79;21117;-85
2021/01/24 10:12:07;;;;;;;18.67;14.07;;;;;;;;;;1818940;79;21180;-85
2021/01/24 10:14:36;;;;;;;22.62;14.45;;;;;;;;;;1819099;79;21141;-84
2021/01/24 10:17:02;;;;;;;19.77;15.03;;;;;;;;;;1819018;79;21126;-84
2021/01/24 10:19:28;;;;;;;24.05;14.70;;;;;;;;;;1819078;79;21141;-83
2021/01/24 10:21:54;;;;;;;20.27;14.65;;;;;;;;;;1819054;79;21145;-83
2021/01/24 10:24:23;;;;;;;19.60;13.88;;;;;;;;;;1818847;79;21161;-84
2021/01/24 10:26:49;;;;;;;23.87;14.78;;;;;;;;;;1819270;79;21593;-84
2021/01/24 10:29:17;;;;;;;19.27;15.03;;;;;;;;;;1787797;79;21137;-85
2021/01/24 10:31:44;;;;;;;22.52;14.18;;;;;;;;;;1819152;79;21092;-84
2021/01/24 10:34:14;;;;;;;19.48;14.20;;;;;;;;;;1818227;79;21173;-84
2021/01/24 10:36:40;;;;;;;22.42;14.83;;;;;;;;;;1819004;79;21550;-84
2021/01/24 10:39:09;;;;;;;20.43;15.30;;;;;;;;;;1818998;79;21165;-84
2021/01/24 10:41:35;;;;;;;18.20;13.05;;;;;;;;;;1825475;78;21704;-84
2021/01/24 10:44:01;;;;;;;19.87;14.00;;;;;;;;;;1828145;78;21153;-83
2021/01/24 10:49:12;;;;;;;21.97;15.00;;;;;;;;;;1789259;78;21134;-84
2021/01/24 10:51:40;;;;;;;21.68;14.38;;;;;;;;;;1828041;78;21553;-84
2021/01/24 10:54:06;;;;;;;19.95;13.80;;;;;;;;;;1827783;78;21172;-84
2021/01/24 10:56:32;;;;;;;21.20;14.60;;;;;;;;;;1828409;78;21149;-82
2021/01/24 10:58:58;;;;;;;19.05;14.18;;;;;;;;;;1828401;78;21287;-84
2021/01/24 11:01:24;;;;;;;21.73;13.35;;;;;;;;;;1828012;78;21561;-83
2021/01/24 11:03:51;;;;;;;19.85;12.75;;;;;;;;;;1828071;78;21335;-84
2021/01/24 11:06:17;;;;;;;18.32;12.40;;;;;;;;;;1828013;78;21565;-84
2021/01/24 11:08:45;;;;;;;19.48;13.18;;;;;;;;;;1827849;78;21608;-84
2021/01/24 11:11:22;;;;;;;14.95;9.90;;;;;;;;;;1828299;78;21141;-83
2021/01/24 11:13:49;;;;;;;10.28;6.25;;;;;;;;;;1827941;78;21140;-83
2021/01/24 11:16:15;;;;;;;6.15;5.10;;;;;;;;;;1827973;78;21185;-84
2021/01/24 11:18:41;;;;;;;1.77;1.45;;;;;;;;;;1828050;78;21560;-83
2021/01/24 11:21:07;;;;;;;1.40;1.00;;;;;;;;;;1827860;78;21133;-84
2021/01/24 11:23:33;;;;;;;2.22;1.20;;;;;;;;;;1827882;78;21146;-83
2021/01/24 11:25:59;;;;;;;2.52;1.30;;;;;;;;;;1828200;78;21306;-83
2021/01/24 11:28:25;;;;;;;2.65;1.50;;;;;;;;;;1827875;78;21225;-83
2021/01/24 11:30:51;;;;;;;3.50;1.40;;;;;;;;;;1827924;78;21183;-84
2021/01/24 11:33:18;;;;;;;1.20;1.10;;;;;;;;;;1827977;78;21593;-84
2021/01/24 11:35:44;;;;;;;2.05;1.25;;;;;;;;;;1828084;78;21121;-84
2021/01/24 11:38:10;;;;;;;1.02;0.93;;;;;;;;;;1827981;78;21577;-84
2021/01/24 11:40:36;;;;;;;3.27;1.40;;;;;;;;;;1821356;78;21162;-83
2021/01/24 11:43:02;;;;;;;1.62;1.30;;;;;;;;;;1795204;80;21118;-83
2021/01/24 11:45:28;;;;;;;1.75;1.10;;;;;;;;;;1795103;80;21175;-84
2021/01/24 11:47:55;;;;;;;1.42;1.10;;;;;;;;;;1795478;80;21161;-83
2021/01/24 11:50:21;;;;;;;1.75;0.90;;;;;;;;;;1795417;80;21174;-84
2021/01/24 11:52:47;;;;;;;1.27;1.00;;;;;;;;;;1795171;80;21660;-83
2021/01/24 11:55:17;;;;;;;1.42;1.00;;;;;;;;;;1795070;80;21155;-83
2021/01/24 11:57:46;;;;;;;2.83;1.27;;;;;;;;;;1795033;80;21617;-83
2021/01/24 12:00:12;;;;;;;3.40;1.12;;;;;;;;;;1795132;80;21142;-83
2021/01/24 12:02:38;;;;;;;2.58;1.30;;;;;;;;;;1795081;80;21182;-84
2021/01/24 12:05:05;;;;;;;2.37;1.10;;;;;;;;;;1795190;80;21151;-83
2021/01/24 12:07:31;;;;;;;3.45;1.10;;;;;;;;;;1794982;80;21130;-84
2021/01/24 12:09:58;;;;;;;1.90;1.22;;;;;;;;;;1795141;80;21610;-82
2021/01/24 12:12:24;;;;;;;1.70;1.30;;;;;;;;;;1795426;80;21142;-82
2021/01/24 12:14:50;;;;;;;2.22;1.25;;;;;;;;;;1795101;80;21550;-84
2021/01/24 12:17:23;;;;;;;1.72;1.05;;;;;;;;;;1795184;80;21181;-83
2021/01/24 12:19:47;;;;;;;1.82;0.98;;;;;;;;;;1794484;80;21135;-83
2021/01/24 12:22:13;;;;;;;3.25;1.60;;;;;;;;;;1795193;80;21158;-83
2021/01/24 12:24:39;;;;;;;1.90;1.22;;;;;;;;;;1795147;80;21633;-82
2021/01/24 12:27:13;;;;;;;2.00;1.17;;;;;;;;;;1795501;80;21713;-83
2021/01/24 12:29:40;;;;;;;2.90;1.30;;;;;;;;;;1795133;80;21764;-83
2021/01/24 12:32:16;;;;;;;2.17;1.20;;;;;;;;;;1795088;80;21162;-83
2021/01/24 12:34:48;;;;;;;1.30;1.00;;;;;;;;;;1795152;80;21166;-82
2021/01/24 12:37:17;;;;;;;1.82;1.10;;;;;;;;;;1795017;80;21256;-83
2021/01/24 12:39:44;;;;;;;1.55;1.10;;;;;;;;;;1795013;80;21194;-83
2021/01/24 12:42:12;;;;;;;4.85;1.27;;;;;;;;;;1795489;78;21153;-83
2021/01/24 12:44:41;;;;;;;1.00;1.00;;;;;;;;;;1795011;80;21119;-84
2021/01/24 12:47:09;;;;;;;1.72;1.10;;;;;;;;;;1766188;80;21149;-82
2021/01/24 12:49:36;;;;;;;2.67;0.90;;;;;;;;;;1795001;80;21324;-83
2021/01/24 12:52:03;;;;;;;1.20;0.88;;;;;;;;;;1795296;80;21154;-83
2021/01/24 12:54:29;;;;;;;1.67;1.20;;;;;;;;;;1794990;80;21134;-83
2021/01/24 12:56:55;;;;;;;8.33;1.35;;;;;;;;;;1795015;80;21135;-85
2021/01/24 12:59:21;;;;;;;2.85;1.05;;;;;;;;;;1795120;80;21335;-84
2021/01/24 13:01:47;;;;;;;1.00;0.80;;;;;;;;;;1795502;80;21119;-83
2021/01/24 13:04:14;;;;;;;1.20;0.85;;;;;;;;;;1794971;80;21732;-83
2021/01/24 13:06:40;;;;;;;3.75;1.52;;;;;;;;;;1795219;80;21147;-84
2021/01/24 13:09:07;;;;;;;2.77;1.10;;;;;;;;;;1795003;80;21612;-82
2021/01/24 13:11:38;;;;;;;1.75;1.05;;;;;;;;;;1795013;80;21138;-83
2021/01/24 13:14:04;;;;;;;3.47;1.00;;;;;;;;;;1795147;80;21134;-83
2021/01/24 13:16:30;;;;;;;0.90;0.80;;;;;;;;;;1794977;80;21711;-84
2021/01/24 13:18:57;;;;;;;0.93;0.55;;;;;;;;;;1795065;80;21142;-84
2021/01/24 13:21:26;;;;;;;1.75;1.10;;;;;;;;;;1795270;80;21293;-84
2021/01/24 13:23:55;;;;;;;1.05;0.82;;;;;;;;;;1795252;80;21150;-83
2021/01/24 13:26:21;;;;;;;1.05;0.78;;;;;;;;;;1795049;80;21119;-84
2021/01/24 13:28:47;;;;;;;1.72;1.10;;;;;;;;;;1795309;80;21154;-84
2021/01/24 13:31:13;;;;;;;0.90;0.62;;;;;;;;;;1795063;80;21653;-84
2021/01/24 13:33:39;;;;;;;2.08;1.12;;;;;;;;;;1795241;80;21154;-84
2021/01/24 13:36:06;;;;;;;0.93;0.80;;;;;;;;;;1771184;80;21174;-85
2021/01/24 13:38:33;;;;;;;1.05;0.80;;;;;;;;;;1763401;81;21594;-84
2021/01/24 13:40:59;;;;;;;1.25;0.95;;;;;;;;;;1767010;80;21260;-83
2021/01/24 13:43:27;;;;;;;1.50;0.75;;;;;;;;;;1786730;80;21404;-83
2021/01/24 13:45:53;;;;;;;1.32;1.00;;;;;;;;;;1785881;80;21585;-84
2021/01/24 13:48:19;;;;;;;1.72;0.90;;;;;;;;;;1786633;80;21129;-83
2021/01/24 13:50:50;;;;;;;1.42;1.00;;;;;;;;;;1786782;80;21181;-83
2021/01/24 13:53:13;;;;;;;1.50;1.00;;;;;;;;;;1786147;80;21605;-83
2021/01/24 13:55:40;;;;;;;2.00;0.80;;;;;;;;;;1786914;80;21154;-84
2021/01/24 13:58:06;;;;;;;1.47;0.78;;;;;;;;;;1786929;80;21177;-84
2021/01/24 14:00:32;;;;;;;2.52;1.25;;;;;;;;;;1786956;80;21581;-83
2021/01/24 14:02:58;;;;;;;1.57;1.10;;;;;;;;;;1786971;80;21157;-85
2021/01/24 14:05:24;;;;;;;1.52;0.90;;;;;;;;;;1786982;80;21177;-84
2021/01/24 14:07:50;;;;;;;2.20;0.90;;;;;;;;;;1786809;80;21191;-84
2021/01/24 14:10:17;;;;;;;4.20;1.80;;;;;;;;;;1786813;80;21172;-83
2021/01/24 14:12:43;;;;;;;3.62;0.93;;;;;;;;;;1786924;80;21146;-83
2021/01/24 14:15:09;;;;;;;3.83;1.10;;;;;;;;;;1786690;80;21600;-83
2021/01/24 14:17:36;;;;;;;1.05;0.90;;;;;;;;;;1786799;80;21157;-84
2021/01/24 14:20:02;;;;;;;3.37;1.42;;;;;;;;;;1786856;80;21158;-83
2021/01/24 14:22:29;;;;;;;4.42;1.02;;;;;;;;;;1786734;80;21161;-82
2021/01/24 14:24:55;;;;;;;2.45;0.60;;;;;;;;;;1786670;80;21243;-87